North Corners, Georgia
Current Conditions -  °F | °C
As of 6:53 PM on Wednesday 22 Oct 2014 (Local Time) from KVPC Reporting Station
Clear Clear  
Wind Chill: 59°   Ceiling: Unl
Heat Index: 59°   Visibility: 10mi
Dew Point: 41°   Wind: 7mph
Humidity: 51%   Direction: 350°N
Pressure: 30.11"   Gusts: NA
Location:  34.1498°N, 84.8279°W
Report Text: KVPC 222253Z AUTO 35006KT 10SM CLR 15/05 A3011 RMK AO2 SLP192 T01500050
Loading
Personal Weather Stations






























Interactive Weather Map
Tropical Storm Tracking
New forecast layout! Learn more

10-Day Weather Forecast

Advertisements
Track Severe Weather on mobile